Time;durP1;ratioP1;P1;durP2;ratioP2;P2;SDS_P1;SDS_P2;PMS_P1;PMS_P2;Temp;Humidity;BMP_temperature;BMP_pressure;BME280_temperature;BME280_humidity;BME280_pressure;Samples;Min_cycle;Max_cycle;Signal;HPM_P1;HPM_P2
2023/09/19 00:00:19;;;;;;;0.50;0.50;;;;;;;;;;4992843;28;20085;-82
2023/09/19 00:02:47;;;;;;;0.20;0.10;;;;;;;;;;4982327;28;20046;-80
2023/09/19 00:05:13;;;;;;;0.20;0.00;;;;;;;;;;4985681;28;20113;-80
2023/09/19 00:07:40;;;;;;;0.20;0.00;;;;;;;;;;4978547;28;20060;-82
2023/09/19 00:10:08;;;;;;;0.20;0.00;;;;;;;;;;4966947;28;20050;-79
2023/09/19 00:12:34;;;;;;;0.20;0.00;;;;;;;;;;4979743;28;20070;-79
2023/09/19 00:15:00;;;;;;;0.20;0.00;;;;;;;;;;4962945;28;20077;-81
2023/09/19 00:17:30;;;;;;;0.20;0.10;;;;;;;;;;4975210;28;20038;-80
2023/09/19 00:19:56;;;;;;;0.20;0.10;;;;;;;;;;4962508;28;20457;-80
2023/09/19 00:22:22;;;;;;;0.20;0.00;;;;;;;;;;4963302;28;20046;-80
2023/09/19 00:24:48;;;;;;;0.30;0.20;;;;;;;;;;4983929;28;20464;-82
2023/09/19 00:27:14;;;;;;;0.50;0.28;;;;;;;;;;4986263;28;20165;-80
2023/09/19 00:29:40;;;;;;;0.20;0.00;;;;;;;;;;4984334;28;20046;-81
2023/09/19 00:32:08;;;;;;;0.20;0.10;;;;;;;;;;4986567;28;20034;-80
2023/09/19 00:34:35;;;;;;;1.20;0.25;;;;;;;;;;4977968;28;20039;-80
2023/09/19 00:37:01;;;;;;;0.20;0.10;;;;;;;;;;4987568;28;20046;-81
2023/09/19 00:39:31;;;;;;;0.20;0.00;;;;;;;;;;4996221;28;20610;-81
2023/09/19 00:41:57;;;;;;;0.20;0.10;;;;;;;;;;4990671;28;20102;-79
2023/09/19 00:44:23;;;;;;;0.43;0.22;;;;;;;;;;4995337;28;20038;-80
2023/09/19 00:46:50;;;;;;;0.20;0.00;;;;;;;;;;4992708;28;20474;-79
2023/09/19 00:49:16;;;;;;;0.20;0.00;;;;;;;;;;4988552;28;20038;-83
2023/09/19 00:51:47;;;;;;;0.20;0.10;;;;;;;;;;4994126;28;20058;-81
2023/09/19 00:54:18;;;;;;;0.20;0.10;;;;;;;;;;4991152;28;20038;-81
2023/09/19 00:56:44;;;;;;;0.20;0.10;;;;;;;;;;4984912;28;20691;-82
2023/09/19 00:59:11;;;;;;;0.20;0.00;;;;;;;;;;4974633;28;20050;-79
2023/09/19 01:01:39;;;;;;;0.22;0.22;;;;;;;;;;4994414;28;20137;-80
2023/09/19 01:04:06;;;;;;;0.28;0.15;;;;;;;;;;5012140;28;20042;-81
2023/09/19 01:06:32;;;;;;;0.20;0.00;;;;;;;;;;4989739;28;20367;-78
2023/09/19 01:08:58;;;;;;;0.20;0.00;;;;;;;;;;4994579;28;20034;-81
2023/09/19 01:11:36;;;;;;;0.55;0.55;;;;;;;;;;4996247;28;20042;-82
2023/09/19 01:14:07;;;;;;;0.20;0.00;;;;;;;;;;4993825;28;20050;-81
2023/09/19 01:16:34;;;;;;;0.20;0.00;;;;;;;;;;4994654;28;20106;-81
2023/09/19 01:19:22;;;;;;;0.20;0.00;;;;;;;;;;4976183;28;20451;-79
2023/09/19 01:22:02;;;;;;;0.20;0.00;;;;;;;;;;5007216;28;20042;-81
2023/09/19 01:24:47;;;;;;;0.20;0.00;;;;;;;;;;4979958;28;20053;-79
2023/09/19 01:27:48;;;;;;;5.15;0.85;;;;;;;;;;4979990;28;20094;-81
2023/09/19 01:30:18;;;;;;;0.20;0.05;;;;;;;;;;4935650;28;20061;-79
2023/09/19 01:32:46;;;;;;;0.20;0.03;;;;;;;;;;4966008;28;20109;-79
2023/09/19 01:35:13;;;;;;;0.20;0.00;;;;;;;;;;4990399;28;20479;-80
2023/09/19 01:37:38;;;;;;;0.20;0.10;;;;;;;;;;5010103;28;20403;-81
2023/09/19 01:40:18;;;;;;;0.20;0.00;;;;;;;;;;4992784;28;20042;-79
2023/09/19 01:42:55;;;;;;;0.20;0.00;;;;;;;;;;5003973;28;20074;-80
2023/09/19 01:45:34;;;;;;;0.68;0.32;;;;;;;;;;4990757;28;20061;-81
2023/09/19 01:48:09;;;;;;;0.20;0.00;;;;;;;;;;4995285;28;20058;-80
2023/09/19 01:50:59;;;;;;;0.20;0.05;;;;;;;;;;4982942;28;20057;-80
2023/09/19 01:53:25;;;;;;;0.20;0.10;;;;;;;;;;4985671;28;20050;-79
2023/09/19 01:55:51;;;;;;;0.20;0.10;;;;;;;;;;4985375;28;21267;-79
2023/09/19 01:58:22;;;;;;;0.20;0.08;;;;;;;;;;4995308;28;20050;-79
2023/09/19 02:00:51;;;;;;;0.20;0.10;;;;;;;;;;4987990;28;20046;-80
2023/09/19 02:03:18;;;;;;;0.20;0.10;;;;;;;;;;5009259;28;20050;-81
2023/09/19 02:05:51;;;;;;;0.20;0.10;;;;;;;;;;4990572;28;20038;-79
2023/09/19 02:08:21;;;;;;;0.20;0.05;;;;;;;;;;4971907;28;20081;-78
2023/09/19 02:10:48;;;;;;;0.65;0.20;;;;;;;;;;4973972;28;20037;-80
2023/09/19 02:13:19;;;;;;;0.20;0.00;;;;;;;;;;4984053;28;20157;-79
2023/09/19 02:15:46;;;;;;;0.20;0.00;;;;;;;;;;4988335;28;20530;-79
2023/09/19 02:18:12;;;;;;;0.20;0.00;;;;;;;;;;4981957;28;20104;-82
2023/09/19 02:20:38;;;;;;;0.20;0.08;;;;;;;;;;4967370;28;20035;-80
2023/09/19 02:23:04;;;;;;;0.20;0.08;;;;;;;;;;4992176;28;20409;-81
2023/09/19 02:25:31;;;;;;;0.20;0.08;;;;;;;;;;4971487;28;20238;-80
2023/09/19 02:27:58;;;;;;;0.20;0.10;;;;;;;;;;4988265;28;20527;-78
2023/09/19 02:30:28;;;;;;;0.20;0.10;;;;;;;;;;4989529;28;20038;-80
2023/09/19 02:32:54;;;;;;;0.20;0.10;;;;;;;;;;4988482;28;20545;-80
2023/09/19 02:35:20;;;;;;;0.20;0.00;;;;;;;;;;4990891;28;20042;-81
2023/09/19 02:37:47;;;;;;;0.20;0.00;;;;;;;;;;4971001;28;20043;-78
2023/09/19 02:40:22;;;;;;;0.20;0.10;;;;;;;;;;4978141;28;20057;-78
2023/09/19 02:42:49;;;;;;;0.20;0.00;;;;;;;;;;4983478;28;20042;-82
2023/09/19 02:45:18;;;;;;;0.20;0.00;;;;;;;;;;4995854;28;20054;-80
2023/09/19 02:47:48;;;;;;;0.40;0.40;;;;;;;;;;4981290;28;20256;-80
2023/09/19 02:50:17;;;;;;;0.20;0.00;;;;;;;;;;4993239;28;20565;-83
2023/09/19 02:52:43;;;;;;;0.20;0.08;;;;;;;;;;4991247;28;20094;-81
2023/09/19 02:55:10;;;;;;;0.20;0.10;;;;;;;;;;4985435;28;20100;-79
2023/09/19 02:57:40;;;;;;;0.40;0.20;;;;;;;;;;4979215;28;20117;-80
2023/09/19 03:00:07;;;;;;;0.20;0.10;;;;;;;;;;4992504;28;20139;-81
2023/09/19 03:02:34;;;;;;;0.20;0.00;;;;;;;;;;4983788;28;20542;-81
2023/09/19 03:05:00;;;;;;;0.20;0.10;;;;;;;;;;4968131;28;20069;-83
2023/09/19 03:07:26;;;;;;;0.40;0.38;;;;;;;;;;4984157;28;20039;-81
2023/09/19 03:09:53;;;;;;;0.30;0.20;;;;;;;;;;4987961;28;20260;-79
2023/09/19 03:12:19;;;;;;;0.20;0.00;;;;;;;;;;4987738;28;20081;-82
2023/09/19 03:14:45;;;;;;;0.20;0.00;;;;;;;;;;4982980;28;20073;-81
2023/09/19 03:17:14;;;;;;;0.20;0.00;;;;;;;;;;4991476;28;20053;-80
2023/09/19 03:19:40;;;;;;;0.20;0.00;;;;;;;;;;4990312;28;20101;-85
2023/09/19 03:22:07;;;;;;;0.20;0.10;;;;;;;;;;4968116;28;20404;-85
2023/09/19 03:24:35;;;;;;;0.20;0.00;;;;;;;;;;4969479;28;20046;-82
2023/09/19 03:27:02;;;;;;;0.20;0.05;;;;;;;;;;4987578;28;20046;-79
2023/09/19 03:29:28;;;;;;;0.20;0.00;;;;;;;;;;4989414;28;20043;-80
2023/09/19 03:31:54;;;;;;;0.20;0.00;;;;;;;;;;4985666;28;20031;-79
2023/09/19 03:34:21;;;;;;;0.20;0.00;;;;;;;;;;4985205;28;20031;-82
2023/09/19 03:36:47;;;;;;;0.20;0.00;;;;;;;;;;4986640;28;20054;-80
2023/09/19 03:39:15;;;;;;;0.20;0.00;;;;;;;;;;4985075;28;20093;-80
2023/09/19 03:41:41;;;;;;;0.32;0.22;;;;;;;;;;4986427;28;20506;-78
2023/09/19 03:44:07;;;;;;;0.20;0.10;;;;;;;;;;4985170;28;20141;-79
2023/09/19 03:46:35;;;;;;;0.20;0.00;;;;;;;;;;4981255;28;20461;-81
2023/09/19 03:49:02;;;;;;;0.20;0.00;;;;;;;;;;4983149;28;20119;-84
2023/09/19 03:51:28;;;;;;;0.20;0.03;;;;;;;;;;4989690;28;20046;-83
2023/09/19 03:53:54;;;;;;;0.20;0.03;;;;;;;;;;4988205;28;20386;-80
2023/09/19 03:56:20;;;;;;;0.30;0.20;;;;;;;;;;5006866;28;20066;-84
2023/09/19 03:58:46;;;;;;;0.20;0.00;;;;;;;;;;4990962;28;20087;-78
2023/09/19 04:01:13;;;;;;;0.20;0.10;;;;;;;;;;4994412;28;20043;-83
2023/09/19 04:03:46;;;;;;;0.47;0.22;;;;;;;;;;4990641;28;20090;-82
2023/09/19 04:06:12;;;;;;;;;;;;;;;;;;4991299;28;20053;-79
2023/09/19 04:08:38;;;;;;;0.20;0.00;;;;;;;;;;4988404;28;19967;-81
2023/09/19 04:11:04;;;;;;;0.20;0.10;;;;;;;;;;4966488;28;20046;-79
2023/09/19 04:13:30;;;;;;;0.20;0.03;;;;;;;;;;4995740;28;20510;-83
2023/09/19 04:15:56;;;;;;;0.20;0.10;;;;;;;;;;4989274;28;20074;-84
2023/09/19 04:18:23;;;;;;;0.20;0.08;;;;;;;;;;4991608;28;20045;-79
2023/09/19 04:20:52;;;;;;;0.20;0.00;;;;;;;;;;4989965;28;20041;-82
2023/09/19 04:23:22;;;;;;;0.20;0.08;;;;;;;;;;4976514;28;20037;-80
2023/09/19 04:25:48;;;;;;;0.20;0.10;;;;;;;;;;4974189;28;20046;-83
2023/09/19 04:28:15;;;;;;;0.20;0.10;;;;;;;;;;4992748;28;20042;-82
2023/09/19 04:30:41;;;;;;;0.20;0.10;;;;;;;;;;4973037;28;20293;-81
2023/09/19 04:33:07;;;;;;;0.20;0.10;;;;;;;;;;4983574;28;20570;-81
2023/09/19 04:35:33;;;;;;;0.40;0.35;;;;;;;;;;4971554;28;20035;-82
2023/09/19 04:38:00;;;;;;;0.20;0.00;;;;;;;;;;4984461;28;20096;-84
2023/09/19 04:40:26;;;;;;;0.20;0.10;;;;;;;;;;4982867;28;20100;-82
2023/09/19 04:42:59;;;;;;;0.20;0.17;;;;;;;;;;4972479;28;20058;-81
2023/09/19 04:45:29;;;;;;;0.20;0.10;;;;;;;;;;4993934;28;20045;-83
2023/09/19 04:47:58;;;;;;;0.20;0.10;;;;;;;;;;4992419;28;20038;-84
2023/09/19 04:50:27;;;;;;;0.20;0.10;;;;;;;;;;4987931;28;20038;-84
2023/09/19 04:52:54;;;;;;;0.20;0.00;;;;;;;;;;4984042;28;20047;-85
2023/09/19 04:55:20;;;;;;;2.08;0.70;;;;;;;;;;4977318;28;20044;-84
2023/09/19 04:57:50;;;;;;;0.20;0.10;;;;;;;;;;4995306;28;20057;-80
2023/09/19 05:00:24;;;;;;;0.20;0.10;;;;;;;;;;4977884;28;20074;-79
2023/09/19 05:02:56;;;;;;;0.20;0.00;;;;;;;;;;4996450;28;20038;-82
2023/09/19 05:05:23;;;;;;;0.20;0.10;;;;;;;;;;4998044;28;20046;-80
2023/09/19 05:07:51;;;;;;;2.05;0.95;;;;;;;;;;4995416;28;20038;-81
2023/09/19 05:10:18;;;;;;;0.20;0.10;;;;;;;;;;4995375;28;20046;-83
2023/09/19 05:12:48;;;;;;;0.35;0.35;;;;;;;;;;4978930;28;20157;-80
2023/09/19 05:15:17;;;;;;;0.20;0.00;;;;;;;;;;4988219;28;20035;-80
2023/09/19 05:17:50;;;;;;;0.20;0.00;;;;;;;;;;4989583;28;20263;-80
2023/09/19 05:20:16;;;;;;;0.20;0.13;;;;;;;;;;4990503;28;20045;-79
2023/09/19 05:22:43;;;;;;;0.20;0.00;;;;;;;;;;4991131;28;20442;-78
2023/09/19 05:25:09;;;;;;;0.20;0.00;;;;;;;;;;4995611;28;20467;-79
2023/09/19 05:27:35;;;;;;;0.20;0.10;;;;;;;;;;4990952;28;20089;-80
2023/09/19 05:30:02;;;;;;;0.20;0.00;;;;;;;;;;4990940;28;20035;-85
2023/09/19 05:32:28;;;;;;;0.20;0.00;;;;;;;;;;4995661;28;20541;-82
2023/09/19 05:34:56;;;;;;;0.20;0.10;;;;;;;;;;4989893;28;20045;-82
2023/09/19 05:37:23;;;;;;;0.20;0.10;;;;;;;;;;4987990;28;20091;-81
2023/09/19 05:39:50;;;;;;;0.20;0.13;;;;;;;;;;4994266;28;20042;-81
2023/09/19 05:42:17;;;;;;;0.20;0.10;;;;;;;;;;4987948;28;20091;-84
2023/09/19 05:44:43;;;;;;;0.20;0.00;;;;;;;;;;4994367;28;20046;-80
2023/09/19 05:47:09;;;;;;;0.20;0.10;;;;;;;;;;4993353;28;20066;-84
2023/09/19 05:49:38;;;;;;;0.20;0.10;;;;;;;;;;5011456;28;20039;-80
2023/09/19 05:52:08;;;;;;;0.20;0.00;;;;;;;;;;4989628;28;21166;-80
2023/09/19 05:54:34;;;;;;;0.20;0.10;;;;;;;;;;4992030;28;20044;-81
2023/09/19 05:57:03;;;;;;;0.20;0.00;;;;;;;;;;5007634;28;20038;-83
2023/09/19 05:59:29;;;;;;;0.20;0.00;;;;;;;;;;4984543;28;20457;-84
2023/09/19 06:01:55;;;;;;;0.20;0.00;;;;;;;;;;4978719;28;20042;-80
2023/09/19 06:04:25;;;;;;;0.20;0.00;;;;;;;;;;5000612;28;20498;-80
2023/09/19 06:06:51;;;;;;;0.20;0.10;;;;;;;;;;4991899;28;20511;-82
2023/09/19 06:09:17;;;;;;;1.75;0.75;;;;;;;;;;4987180;28;20616;-81
2023/09/19 06:11:43;;;;;;;0.20;0.00;;;;;;;;;;4988120;28;20039;-82
2023/09/19 06:14:10;;;;;;;0.20;0.10;;;;;;;;;;4984610;28;20143;-79
2023/09/19 06:16:38;;;;;;;0.20;0.10;;;;;;;;;;4987867;28;20053;-84
2023/09/19 06:19:08;;;;;;;0.20;0.10;;;;;;;;;;4973300;28;20097;-80
2023/09/19 06:21:34;;;;;;;0.20;0.00;;;;;;;;;;4990469;28;20121;-80
2023/09/19 06:24:00;;;;;;;0.20;0.10;;;;;;;;;;4977364;28;20046;-79
2023/09/19 06:26:27;;;;;;;0.20;0.00;;;;;;;;;;4991315;28;20042;-79
2023/09/19 06:28:53;;;;;;;0.20;0.10;;;;;;;;;;4988063;28;20053;-81
2023/09/19 06:31:21;;;;;;;0.20;0.10;;;;;;;;;;4988959;28;20041;-82
2023/09/19 06:33:47;;;;;;;0.20;0.03;;;;;;;;;;5028678;23;20072;-85
2023/09/19 06:36:13;;;;;;;0.20;0.10;;;;;;;;;;5040367;28;20059;-83
2023/09/19 06:38:39;;;;;;;0.20;0.00;;;;;;;;;;5046146;28;20079;-84
2023/09/19 06:41:06;;;;;;;0.65;0.60;;;;;;;;;;5048498;28;20099;-84
2023/09/19 06:43:33;;;;;;;0.45;0.45;;;;;;;;;;5046807;28;20128;-86
2023/09/19 06:46:00;;;;;;;0.50;0.45;;;;;;;;;;5044262;28;20049;-84
2023/09/19 06:48:26;;;;;;;1.20;0.52;;;;;;;;;;5045262;28;20375;-83
2023/09/19 06:50:56;;;;;;;0.20;0.08;;;;;;;;;;5043647;28;20068;-83
2023/09/19 06:53:25;;;;;;;0.20;0.13;;;;;;;;;;5048780;28;20040;-84
2023/09/19 06:55:51;;;;;;;0.20;0.00;;;;;;;;;;5033261;28;20522;-83
2023/09/19 06:58:17;;;;;;;0.52;0.45;;;;;;;;;;5064199;28;20061;-86
2023/09/19 07:00:44;;;;;;;0.20;0.10;;;;;;;;;;5030316;28;20045;-84
2023/09/19 07:03:11;;;;;;;0.20;0.10;;;;;;;;;;5047822;28;20068;-83
2023/09/19 07:05:39;;;;;;;0.20;0.00;;;;;;;;;;5047372;28;20045;-83
2023/09/19 07:08:10;;;;;;;0.20;0.00;;;;;;;;;;5032368;28;20491;-84
2023/09/19 07:10:36;;;;;;;0.20;0.10;;;;;;;;;;5028398;28;20064;-83
2023/09/19 07:13:02;;;;;;;0.20;0.00;;;;;;;;;;5044657;28;20033;-84
2023/09/19 07:15:30;;;;;;;0.20;0.10;;;;;;;;;;5064017;28;20082;-84
2023/09/19 07:17:56;;;;;;;0.30;0.10;;;;;;;;;;5047314;28;20481;-85
2023/09/19 07:20:26;;;;;;;0.20;0.10;;;;;;;;;;5035782;28;20475;-82
2023/09/19 07:22:54;;;;;;;0.20;0.00;;;;;;;;;;5049742;28;20560;-83
2023/09/19 07:25:20;;;;;;;0.20;0.00;;;;;;;;;;5030150;28;20124;-85
2023/09/19 07:27:47;;;;;;;0.20;0.10;;;;;;;;;;5041559;28;20036;-84
2023/09/19 07:30:15;;;;;;;1.05;0.98;;;;;;;;;;5031410;28;20044;-83
2023/09/19 07:32:41;;;;;;;0.30;0.15;;;;;;;;;;5050332;28;20039;-84
2023/09/19 07:35:07;;;;;;;0.20;0.10;;;;;;;;;;5050856;28;20060;-82
2023/09/19 07:37:33;;;;;;;0.20;0.00;;;;;;;;;;5036094;28;20752;-83
2023/09/19 07:40:00;;;;;;;0.20;0.10;;;;;;;;;;5029916;28;20413;-85
2023/09/19 07:42:27;;;;;;;0.65;0.65;;;;;;;;;;5042240;28;20045;-83
2023/09/19 07:44:53;;;;;;;0.20;0.00;;;;;;;;;;5047200;28;20072;-84
2023/09/19 07:47:20;;;;;;;0.20;0.10;;;;;;;;;;5050709;28;20041;-85
2023/09/19 07:49:47;;;;;;;0.20;0.00;;;;;;;;;;5052728;28;20112;-84
2023/09/19 07:52:15;;;;;;;0.20;0.20;;;;;;;;;;5049907;28;20045;-83
2023/09/19 07:54:43;;;;;;;0.20;0.10;;;;;;;;;;5053532;28;20094;-83
2023/09/19 07:57:10;;;;;;;0.20;0.10;;;;;;;;;;5044623;28;20063;-83
2023/09/19 07:59:38;;;;;;;1.65;0.73;;;;;;;;;;5050518;28;20123;-82
2023/09/19 08:02:04;;;;;;;0.20;0.10;;;;;;;;;;5052845;28;20123;-83
2023/09/19 08:04:33;;;;;;;0.52;0.52;;;;;;;;;;5036694;28;20194;-82
2023/09/19 08:07:00;;;;;;;0.20;0.00;;;;;;;;;;5036303;28;20087;-84
2023/09/19 08:09:27;;;;;;;0.20;0.10;;;;;;;;;;5053717;28;20098;-83
2023/09/19 08:11:53;;;;;;;0.20;0.00;;;;;;;;;;5051225;28;20047;-82
2023/09/19 08:14:19;;;;;;;0.20;0.17;;;;;;;;;;5052443;28;20052;-83
2023/09/19 08:16:46;;;;;;;0.20;0.10;;;;;;;;;;5036043;28;20033;-84
2023/09/19 08:19:12;;;;;;;0.85;0.80;;;;;;;;;;5048396;28;20037;-83
2023/09/19 08:21:38;;;;;;;0.20;0.10;;;;;;;;;;5047662;28;20479;-82
2023/09/19 08:24:04;;;;;;;0.28;0.25;;;;;;;;;;5046897;28;20053;-82
2023/09/19 08:26:31;;;;;;;0.20;0.00;;;;;;;;;;5050456;28;20033;-82
2023/09/19 08:28:57;;;;;;;0.30;0.30;;;;;;;;;;5052192;28;20106;-81
2023/09/19 08:31:23;;;;;;;0.20;0.10;;;;;;;;;;5034001;28;20651;-83
2023/09/19 08:33:51;;;;;;;0.20;0.10;;;;;;;;;;5052020;28;20397;-83
2023/09/19 08:36:17;;;;;;;0.20;0.10;;;;;;;;;;5043517;28;20176;-83
2023/09/19 08:38:43;;;;;;;0.20;0.10;;;;;;;;;;5053018;28;20060;-84
2023/09/19 08:41:09;;;;;;;0.20;0.00;;;;;;;;;;5050194;28;20078;-85
2023/09/19 08:43:36;;;;;;;0.20;0.17;;;;;;;;;;5035456;28;20040;-83
2023/09/19 08:46:08;;;;;;;0.20;0.10;;;;;;;;;;5051820;28;20041;-82
2023/09/19 08:48:35;;;;;;;0.88;0.85;;;;;;;;;;5048814;28;20048;-82
2023/09/19 08:51:06;;;;;;;0.20;0.00;;;;;;;;;;5042921;28;20040;-84
2023/09/19 08:53:42;;;;;;;1.85;1.55;;;;;;;;;;5035753;28;20051;-84
2023/09/19 08:56:09;;;;;;;0.20;0.00;;;;;;;;;;5045106;28;20519;-83
2023/09/19 08:58:40;;;;;;;0.20;0.10;;;;;;;;;;5050933;28;20037;-84
2023/09/19 09:01:06;;;;;;;0.20;0.10;;;;;;;;;;5046170;28;20465;-83
2023/09/19 09:03:34;;;;;;;0.20;0.20;;;;;;;;;;5049375;28;20455;-82
2023/09/19 09:06:01;;;;;;;0.20;0.00;;;;;;;;;;5034861;28;20094;-83
2023/09/19 09:08:27;;;;;;;0.20;0.10;;;;;;;;;;5044507;28;20070;-85
2023/09/19 09:10:53;;;;;;;0.20;0.15;;;;;;;;;;5033544;28;20037;-83
2023/09/19 09:13:21;;;;;;;0.20;0.08;;;;;;;;;;5048583;28;20133;-83
2023/09/19 09:15:48;;;;;;;0.82;0.73;;;;;;;;;;5043674;28;20047;-84
2023/09/19 09:18:14;;;;;;;0.75;0.75;;;;;;;;;;5036103;28;20119;-83
2023/09/19 09:20:41;;;;;;;0.20;0.10;;;;;;;;;;5029432;28;20157;-82
2023/09/19 09:23:07;;;;;;;0.28;0.15;;;;;;;;;;5050056;28;20041;-83
2023/09/19 09:25:56;;;;;;;0.20;0.00;;;;;;;;;;5050865;28;20041;-82
2023/09/19 09:28:23;;;;;;;0.30;0.20;;;;;;;;;;5050002;28;20588;-83
2023/09/19 09:30:50;;;;;;;0.20;0.00;;;;;;;;;;5064082;28;20037;-83
2023/09/19 09:33:16;;;;;;;0.20;0.10;;;;;;;;;;5041446;28;20073;-83
2023/09/19 09:35:53;;;;;;;0.20;0.10;;;;;;;;;;5044091;28;20055;-82
2023/09/19 09:38:20;;;;;;;3.63;0.98;;;;;;;;;;5033294;28;20076;-83
2023/09/19 09:40:47;;;;;;;0.20;0.00;;;;;;;;;;5045985;28;20098;-84
2023/09/19 09:43:29;;;;;;;0.20;0.10;;;;;;;;;;5048167;28;20045;-84
2023/09/19 09:49:25;;;;;;;0.20;0.10;;;;;;;;;;5045178;28;20234;-82
2023/09/19 09:52:05;;;;;;;0.20;0.10;;;;;;;;;;5046273;28;20337;-84
2023/09/19 09:54:36;;;;;;;0.20;0.10;;;;;;;;;;5043747;28;20043;-84
2023/09/19 09:57:23;;;;;;;0.50;0.50;;;;;;;;;;5048690;28;20052;-85
2023/09/19 09:59:57;;;;;;;0.20;0.00;;;;;;;;;;5046018;28;20525;-83
2023/09/19 10:02:36;;;;;;;0.20;0.10;;;;;;;;;;5048982;28;20044;-84
2023/09/19 10:05:20;;;;;;;0.20;0.03;;;;;;;;;;5064760;28;20095;-85
2023/09/19 10:08:12;;;;;;;0.20;0.10;;;;;;;;;;5057613;28;20056;-84
2023/09/19 10:13:14;;;;;;;0.20;0.10;;;;;;;;;;5048808;28;20154;-84
2023/09/19 10:15:50;;;;;;;0.20;0.10;;;;;;;;;;5049462;28;20043;-82
2023/09/19 10:18:18;;;;;;;0.38;0.13;;;;;;;;;;5031742;28;20383;-83
2023/09/19 10:20:45;;;;;;;0.20;0.10;;;;;;;;;;5034358;28;20044;-83
2023/09/19 10:23:12;;;;;;;8.30;1.27;;;;;;;;;;5031664;28;20041;-83
2023/09/19 10:25:47;;;;;;;0.20;0.00;;;;;;;;;;5043604;28;20037;-82
2023/09/19 10:28:14;;;;;;;5.88;0.90;;;;;;;;;;5043945;28;20467;-83
2023/09/19 10:30:49;;;;;;;0.20;0.00;;;;;;;;;;5027873;28;20045;-84
2023/09/19 10:33:16;;;;;;;0.20;0.00;;;;;;;;;;5046208;28;20049;-83
2023/09/19 10:35:46;;;;;;;0.20;0.00;;;;;;;;;;5041292;28;20843;-84
2023/09/19 10:38:14;;;;;;;0.20;0.10;;;;;;;;;;5031769;28;20041;-85
2023/09/19 10:40:43;;;;;;;0.20;0.10;;;;;;;;;;5060614;28;20608;-82
2023/09/19 10:43:12;;;;;;;0.20;0.10;;;;;;;;;;5032482;28;20052;-84
2023/09/19 10:45:39;;;;;;;0.20;0.10;;;;;;;;;;5045436;28;20084;-84
2023/09/19 10:48:07;;;;;;;0.20;0.20;;;;;;;;;;5039645;28;20500;-82
2023/09/19 10:50:44;;;;;;;0.20;0.10;;;;;;;;;;5044344;28;20037;-84
2023/09/19 10:53:11;;;;;;;0.20;0.10;;;;;;;;;;5032744;28;20029;-83
2023/09/19 10:55:38;;;;;;;0.20;0.10;;;;;;;;;;5047657;28;20118;-84
2023/09/19 10:58:15;;;;;;;0.20;0.10;;;;;;;;;;5045403;28;20037;-84
2023/09/19 11:01:06;;;;;;;0.75;0.75;;;;;;;;;;5023575;28;20040;-83
2023/09/19 11:03:33;;;;;;;0.38;0.38;;;;;;;;;;5031250;28;20052;-87
2023/09/19 11:06:09;;;;;;;1.27;0.57;;;;;;;;;;5035773;28;20103;-84
2023/09/19 11:08:56;;;;;;;0.20;0.20;;;;;;;;;;5045500;28;20041;-83
2023/09/19 11:11:45;;;;;;;0.20;0.10;;;;;;;;;;5028489;28;20041;-87
2023/09/19 11:14:17;;;;;;;0.20;0.20;;;;;;;;;;5047119;28;20037;-81
2023/09/19 11:17:02;;;;;;;0.20;0.10;;;;;;;;;;5040878;28;20119;-84
2023/09/19 11:19:48;;;;;;;0.20;0.10;;;;;;;;;;5027702;28;20451;-85
2023/09/19 11:22:14;;;;;;;0.20;0.00;;;;;;;;;;5030152;28;20219;-81
2023/09/19 11:24:41;;;;;;;0.20;0.10;;;;;;;;;;5041731;28;20037;-84
2023/09/19 11:27:13;;;;;;;0.20;0.10;;;;;;;;;;5060144;28;20052;-84
2023/09/19 11:29:40;;;;;;;0.20;0.10;;;;;;;;;;5047532;28;20040;-82
2023/09/19 11:32:06;;;;;;;0.20;0.10;;;;;;;;;;5058272;28;20449;-83
2023/09/19 11:34:46;;;;;;;0.57;0.55;;;;;;;;;;5031589;28;20096;-81
2023/09/19 11:37:12;;;;;;;0.40;0.25;;;;;;;;;;5043813;28;20382;-80
2023/09/19 11:39:38;;;;;;;1.05;0.43;;;;;;;;;;5044333;28;20048;-83
2023/09/19 11:42:23;;;;;;;0.43;0.43;;;;;;;;;;5041784;28;20070;-85
2023/09/19 11:44:51;;;;;;;0.57;0.45;;;;;;;;;;5031694;28;20443;-86
2023/09/19 11:47:19;;;;;;;0.20;0.10;;;;;;;;;;5045710;28;20062;-82
2023/09/19 11:49:45;;;;;;;0.30;0.20;;;;;;;;;;5029682;28;20124;-84
2023/09/19 11:52:13;;;;;;;0.20;0.00;;;;;;;;;;5042408;28;20037;-84
2023/09/19 11:54:41;;;;;;;0.20;0.10;;;;;;;;;;5044589;28;20040;-82
2023/09/19 11:57:08;;;;;;;0.20;0.00;;;;;;;;;;5042244;28;20045;-82
2023/09/19 11:59:39;;;;;;;0.20;0.00;;;;;;;;;;5044779;28;20074;-81
2023/09/19 12:02:06;;;;;;;0.20;0.20;;;;;;;;;;5042753;28;20111;-82
2023/09/19 12:04:41;;;;;;;2.05;0.75;;;;;;;;;;5043499;28;20053;-81
2023/09/19 12:07:10;;;;;;;3.25;1.08;;;;;;;;;;5047342;28;20037;-82
2023/09/19 12:09:38;;;;;;;0.20;0.10;;;;;;;;;;5029902;28;20041;-83
2023/09/19 12:12:04;;;;;;;0.20;0.00;;;;;;;;;;5046201;28;20033;-84
2023/09/19 12:14:31;;;;;;;0.20;0.10;;;;;;;;;;5035336;28;20033;-84
2023/09/19 12:17:00;;;;;;;0.20;0.10;;;;;;;;;;5046412;28;20041;-83
2023/09/19 12:19:27;;;;;;;1.17;1.08;;;;;;;;;;5045399;28;20080;-83
2023/09/19 12:22:04;;;;;;;0.20;0.00;;;;;;;;;;5064655;28;20047;-84
2023/09/19 12:24:31;;;;;;;0.20;0.20;;;;;;;;;;5046667;28;20044;-85
2023/09/19 12:27:04;;;;;;;0.30;0.30;;;;;;;;;;5044677;28;20040;-83
2023/09/19 12:29:31;;;;;;;0.20;0.10;;;;;;;;;;5050504;28;20083;-85
2023/09/19 12:32:03;;;;;;;1.20;1.08;;;;;;;;;;5034432;28;20040;-85
2023/09/19 12:34:39;;;;;;;0.28;0.10;;;;;;;;;;5035107;22;20054;-84
2023/09/19 12:37:12;;;;;;;1.27;0.43;;;;;;;;;;4994355;28;20045;-81
2023/09/19 12:39:48;;;;;;;0.20;0.10;;;;;;;;;;5030359;28;20379;-82
2023/09/19 12:42:15;;;;;;;0.20;0.10;;;;;;;;;;4997222;28;20072;-82
2023/09/19 12:44:42;;;;;;;0.20;0.15;;;;;;;;;;5010648;28;20155;-83
2023/09/19 12:47:13;;;;;;;0.20;0.10;;;;;;;;;;5013780;28;20061;-85
2023/09/19 12:49:58;;;;;;;0.20;0.10;;;;;;;;;;5012123;28;20050;-81
2023/09/19 12:52:25;;;;;;;0.20;0.20;;;;;;;;;;5014762;28;20489;-84
2023/09/19 12:54:52;;;;;;;0.20;0.10;;;;;;;;;;5028059;28;20417;-83
2023/09/19 12:57:28;;;;;;;0.20;0.13;;;;;;;;;;5033335;28;20042;-84
2023/09/19 12:59:54;;;;;;;0.20;0.00;;;;;;;;;;5012733;28;20232;-82
2023/09/19 13:02:23;;;;;;;0.50;0.30;;;;;;;;;;5001347;28;20065;-85
2023/09/19 13:04:53;;;;;;;0.20;0.10;;;;;;;;;;4994933;28;20490;-84
2023/09/19 13:07:38;;;;;;;0.40;0.40;;;;;;;;;;5013029;28;20410;-83
2023/09/19 13:10:05;;;;;;;0.65;0.65;;;;;;;;;;5031389;28;20065;-80
2023/09/19 13:12:38;;;;;;;0.65;0.65;;;;;;;;;;5022232;28;20468;-83
2023/09/19 13:15:13;;;;;;;0.20;0.10;;;;;;;;;;5011533;28;20100;-83
2023/09/19 13:17:49;;;;;;;0.20;0.10;;;;;;;;;;4996534;28;20117;-82
2023/09/19 13:20:27;;;;;;;0.20;0.05;;;;;;;;;;4994609;28;20101;-81
2023/09/19 13:22:54;;;;;;;0.20;0.20;;;;;;;;;;5009591;28;20077;-86
2023/09/19 13:25:21;;;;;;;3.63;1.35;;;;;;;;;;4999946;28;20088;-81
2023/09/19 13:27:52;;;;;;;0.20;0.00;;;;;;;;;;5011977;28;20050;-82
2023/09/19 13:30:18;;;;;;;0.90;0.80;;;;;;;;;;5013223;28;20133;-83
2023/09/19 13:32:46;;;;;;;0.20;0.10;;;;;;;;;;5011867;28;20048;-82
2023/09/19 13:35:13;;;;;;;0.20;0.20;;;;;;;;;;5014287;28;20045;-83
2023/09/19 13:37:42;;;;;;;0.20;0.08;;;;;;;;;;5011667;28;20345;-80
2023/09/19 13:40:12;;;;;;;0.20;0.10;;;;;;;;;;4997980;28;20571;-83
2023/09/19 13:42:39;;;;;;;0.47;0.25;;;;;;;;;;5009994;28;20045;-80
2023/09/19 13:45:06;;;;;;;0.40;0.35;;;;;;;;;;5025248;28;20486;-79
2023/09/19 13:47:33;;;;;;;0.40;0.20;;;;;;;;;;5010282;28;20052;-80
2023/09/19 13:50:04;;;;;;;0.20;0.10;;;;;;;;;;5010933;28;20057;-79
2023/09/19 13:52:30;;;;;;;0.20;0.10;;;;;;;;;;5017132;28;20117;-82
2023/09/19 13:54:57;;;;;;;0.88;0.85;;;;;;;;;;4997772;28;20038;-80
2023/09/19 13:57:23;;;;;;;0.20;0.10;;;;;;;;;;5014710;28;20608;-80
2023/09/19 13:59:49;;;;;;;0.20;0.10;;;;;;;;;;4997775;28;20080;-82
2023/09/19 14:02:18;;;;;;;0.20;0.10;;;;;;;;;;5013966;28;20042;-81
2023/09/19 14:04:44;;;;;;;0.20;0.10;;;;;;;;;;5011692;28;20046;-79
2023/09/19 14:07:10;;;;;;;0.20;0.05;;;;;;;;;;5012147;28;20037;-81
2023/09/19 14:09:37;;;;;;;0.20;0.00;;;;;;;;;;4996447;28;20886;-83
2023/09/19 14:12:03;;;;;;;0.20;0.10;;;;;;;;;;5013967;28;20554;-82
2023/09/19 14:14:29;;;;;;;0.20;0.10;;;;;;;;;;5012807;28;20038;-80
2023/09/19 14:16:55;;;;;;;0.47;0.38;;;;;;;;;;4996189;28;20042;-80
2023/09/19 14:19:21;;;;;;;0.20;0.10;;;;;;;;;;5007375;28;20529;-81
2023/09/19 14:21:48;;;;;;;0.20;0.10;;;;;;;;;;5011933;28;20042;-81
2023/09/19 14:24:20;;;;;;;0.20;0.03;;;;;;;;;;5001486;28;20515;-84
2023/09/19 14:26:47;;;;;;;0.22;0.22;;;;;;;;;;5011607;28;20081;-83
2023/09/19 14:29:14;;;;;;;0.20;0.10;;;;;;;;;;5009977;28;20043;-80
2023/09/19 14:31:40;;;;;;;0.20;0.08;;;;;;;;;;5009500;28;20075;-82
2023/09/19 14:34:07;;;;;;;0.20;0.10;;;;;;;;;;5011448;28;20116;-85
2023/09/19 14:36:33;;;;;;;0.20;0.10;;;;;;;;;;4992872;28;20057;-82
2023/09/19 14:38:59;;;;;;;0.20;0.10;;;;;;;;;;4994500;28;20073;-81
2023/09/19 14:41:25;;;;;;;0.20;0.08;;;;;;;;;;5008973;28;20045;-86
2023/09/19 14:43:52;;;;;;;0.20;0.10;;;;;;;;;;4992621;28;20132;-83
2023/09/19 14:46:19;;;;;;;0.20;0.10;;;;;;;;;;4991439;28;20073;-82
2023/09/19 14:48:47;;;;;;;0.20;0.13;;;;;;;;;;5004961;28;20061;-82
2023/09/19 14:51:13;;;;;;;0.20;0.10;;;;;;;;;;4987048;28;20045;-81
2023/09/19 14:53:39;;;;;;;0.20;0.00;;;;;;;;;;5011005;28;20506;-82
2023/09/19 14:56:07;;;;;;;0.20;0.10;;;;;;;;;;4996678;28;20042;-83
2023/09/19 14:58:34;;;;;;;0.20;0.10;;;;;;;;;;5008177;28;20117;-81